KD8HFM-1 Weather Reports


Display with metric or nautical units.
time (UTC)temp
F
wind
direction
speed
MPH
gust
MPH
rain 1hr
in
rain 24hr
in
rain mn
in
humidity
%
barometer
mb
20190920210022 92 272 1.0 9.0 0.00 0.00 0.00 1022.2
20190920193052 90 267 1.0 9.0 0.00 0.00 0.00 1022.6
20190920190042 90 180 1.0 7.0 0.00 0.00 0.00 1022.7
20190920183032 88 187 1.0 7.0 0.00 0.00 0.00 1023.1
20190920180021 87 242 1.0 6.0 0.00 0.00 0.00 1023.5
20190920163052 85 221 1.0 9.0 0.00 0.00 0.00 1024.1
20190920160042 83 215 1.0 7.0 0.00 0.00 0.00 1024.2
20190920153032 78 252 0.0 5.0 0.00 0.00 0.00 1024.4
20190920150022 77 261 1.0 8.0 0.00 0.00 0.00 1024.3
20190920133052 76 150 1.0 6.0 0.00 0.00 0.00 1024.3
20190920130042 73 156 1.0 6.0 0.00 0.00 0.00 12 1024.3
20190920123033 69 147 0.0 4.0 0.00 0.00 0.00 24 1024.0
20190920120023 66 337 0.0 3.0 0.00 0.00 0.00 29 1023.8
20190920103054 65 0.0 0.0 0.00 0.00 0.00 28 1023.1
20190920100046 65 0.0 0.0 0.00 0.00 0.00 27 1023.0
20190920093032 65 0.0 0.0 0.00 0.00 0.00 25 1022.9
20190920090024 65 0.0 0.0 0.00 0.00 0.00 24 1022.7
20190920073053 67 0.0 0.0 0.00 0.00 0.00 15 1022.3
20190920070043 69 0.0 1.0 0.00 0.00 0.00 13 1022.1
20190920063032 70 0.0 2.0 0.00 0.00 0.00 11 1022.2
20190920060024 71 164 0.0 3.0 0.00 0.00 0.00 10 1022.0
20190920043053 71 172 0.0 2.0 0.00 0.00 0.00 10 1021.9
20190920040043 71 113 0.0 3.0 0.00 0.00 0.00 10 1021.9
20190920033033 72 135 0.0 2.0 0.00 0.00 0.00 1021.9
20190920030023 73 164 0.0 3.0 0.00 0.00 0.00 1021.8
20190920013054 76 145 2.0 6.0 0.00 0.00 0.00 1021.3
20190920010044 77 129 2.0 7.0 0.00 0.00 0.00 1021.1
20190920003034 78 111 2.0 6.0 0.00 0.00 0.00 1020.9
20190920000025 79 114 1.0 6.0 0.00 0.00 0.00 1020.7
20190919223055 83 114 3.0 9.0 0.00 0.00 0.00 1020.6
20190919220044 83 124 3.0 9.0 0.00 0.00 0.00 1020.5
20190919213035 85 121 3.0 9.0 0.00 0.00 0.00 1020.5